sensor_id;sensor_type;location;lat;lon;timestamp;pressure;altitude;pressure_sealevel;temperature;humidity
18509;BME280;9383;50.928;12.116;2023-10-19T00:01:16;97485.78;;;4.78;94.30
18509;BME280;9383;50.928;12.116;2023-10-19T00:03:46;97445.94;;;4.67;94.21
18509;BME280;9383;50.928;12.116;2023-10-19T00:06:16;97468.91;;;4.85;94.44
18509;BME280;9383;50.928;12.116;2023-10-19T00:08:44;97472.50;;;4.83;94.50
18509;BME280;9383;50.928;12.116;2023-10-19T00:11:11;97470.66;;;4.85;94.57
18509;BME280;9383;50.928;12.116;2023-10-19T00:13:58;97467.59;;;4.97;94.64
18509;BME280;9383;50.928;12.116;2023-10-19T00:16:24;97426.16;;;4.82;94.97
18509;BME280;9383;50.928;12.116;2023-10-19T00:18:57;97418.31;;;4.80;95.18
18509;BME280;9383;50.928;12.116;2023-10-19T00:21:27;97425.03;;;4.89;95.03
18509;BME280;9383;50.928;12.116;2023-10-19T00:23:56;97367.47;;;4.59;94.57
18509;BME280;9383;50.928;12.116;2023-10-19T00:26:25;97426.28;;;5.02;95.07
18509;BME280;9383;50.928;12.116;2023-10-19T00:28:53;97366.09;;;4.72;94.99
18509;BME280;9383;50.928;12.116;2023-10-19T00:31:26;97411.28;;;5.06;95.24
18509;BME280;9383;50.928;12.116;2023-10-19T00:34:00;97355.41;;;4.78;95.40
18509;BME280;9383;50.928;12.116;2023-10-19T00:36:27;97350.53;;;4.91;95.92
18509;BME280;9383;50.928;12.116;2023-10-19T00:38:57;97415.59;;;5.31;95.92
18509;BME280;9383;50.928;12.116;2023-10-19T00:41:26;97359.09;;;4.97;95.87
18509;BME280;9383;50.928;12.116;2023-10-19T00:43:59;97411.59;;;5.44;95.82
18509;BME280;9383;50.928;12.116;2023-10-19T00:46:29;97291.59;;;4.76;95.53
18509;BME280;9383;50.928;12.116;2023-10-19T00:49:02;97352.78;;;5.25;95.88
18509;BME280;9383;50.928;12.116;2023-10-19T00:51:44;97278.78;;;4.69;95.66
18509;BME280;9383;50.928;12.116;2023-10-19T00:54:20;97367.00;;;5.41;96.18
18509;BME280;9383;50.928;12.116;2023-10-19T00:57:07;97370.94;;;5.53;96.38
18509;BME280;9383;50.928;12.116;2023-10-19T00:59:41;97261.16;;;4.95;95.92
18509;BME280;9383;50.928;12.116;2023-10-19T01:02:20;97373.00;;;5.67;95.95
18509;BME280;9383;50.928;12.116;2023-10-19T01:04:49;97358.28;;;5.63;95.79
18509;BME280;9383;50.928;12.116;2023-10-19T01:07:18;97325.53;;;5.49;96.15
18509;BME280;9383;50.928;12.116;2023-10-19T01:09:49;97356.66;;;5.81;96.48
18509;BME280;9383;50.928;12.116;2023-10-19T01:12:20;97341.09;;;5.76;96.33
18509;BME280;9383;50.928;12.116;2023-10-19T01:15:11;97322.94;;;5.70;96.31
18509;BME280;9383;50.928;12.116;2023-10-19T01:17:48;97317.69;;;5.70;96.47
18509;BME280;9383;50.928;12.116;2023-10-19T01:20:22;97347.06;;;6.02;96.23
18509;BME280;9383;50.928;12.116;2023-10-19T01:23:06;97301.66;;;5.76;96.41
18509;BME280;9383;50.928;12.116;2023-10-19T01:25:52;97363.38;;;6.11;96.26
18509;BME280;9383;50.928;12.116;2023-10-19T01:28:34;97291.19;;;5.75;96.97
18509;BME280;9383;50.928;12.116;2023-10-19T01:31:23;97329.97;;;6.13;96.93
18509;BME280;9383;50.928;12.116;2023-10-19T01:34:00;97290.59;;;5.89;96.93
18509;BME280;9383;50.928;12.116;2023-10-19T01:36:36;97321.00;;;6.17;97.42
18509;BME280;9383;50.928;12.116;2023-10-19T01:39:08;97332.13;;;6.24;97.47
18509;BME280;9383;50.928;12.116;2023-10-19T01:41:38;97305.91;;;6.22;97.65
18509;BME280;9383;50.928;12.116;2023-10-19T01:44:07;97316.72;;;6.35;97.64
18509;BME280;9383;50.928;12.116;2023-10-19T01:46:35;97320.34;;;6.32;97.60
18509;BME280;9383;50.928;12.116;2023-10-19T01:49:04;97298.78;;;6.24;97.71
18509;BME280;9383;50.928;12.116;2023-10-19T01:51:33;97119.63;;;5.30;97.78
18509;BME280;9383;50.928;12.116;2023-10-19T01:54:06;97303.88;;;6.48;97.81
18509;BME280;9383;50.928;12.116;2023-10-19T01:56:36;97251.91;;;6.13;98.22
18509;BME280;9383;50.928;12.116;2023-10-19T01:59:05;97304.38;;;6.56;98.00
18509;BME280;9383;50.928;12.116;2023-10-19T02:01:31;97242.47;;;6.28;98.27
18509;BME280;9383;50.928;12.116;2023-10-19T02:04:02;97276.84;;;6.44;98.50
18509;BME280;9383;50.928;12.116;2023-10-19T02:06:35;97264.41;;;6.48;98.25
18509;BME280;9383;50.928;12.116;2023-10-19T02:09:09;97266.88;;;6.51;98.74
18509;BME280;9383;50.928;12.116;2023-10-19T02:11:45;97223.88;;;6.31;98.76
18509;BME280;9383;50.928;12.116;2023-10-19T02:14:14;97251.72;;;6.56;98.82
18509;BME280;9383;50.928;12.116;2023-10-19T02:16:48;97249.81;;;6.60;98.85
18509;BME280;9383;50.928;12.116;2023-10-19T02:19:20;97225.69;;;6.50;99.00
18509;BME280;9383;50.928;12.116;2023-10-19T02:21:52;97151.94;;;6.13;99.50
18509;BME280;9383;50.928;12.116;2023-10-19T02:24:20;97193.53;;;6.43;99.35
18509;BME280;9383;50.928;12.116;2023-10-19T02:26:49;97259.91;;;6.88;99.34
18509;BME280;9383;50.928;12.116;2023-10-19T02:29:18;97258.91;;;6.91;99.58
18509;BME280;9383;50.928;12.116;2023-10-19T02:31:45;97255.25;;;6.94;99.54
18509;BME280;9383;50.928;12.116;2023-10-19T02:34:12;97256.06;;;6.96;99.45
18509;BME280;9383;50.928;12.116;2023-10-19T02:36:43;97247.16;;;6.98;99.67
18509;BME280;9383;50.928;12.116;2023-10-19T02:39:12;97242.66;;;7.00;100.00
18509;BME280;9383;50.928;12.116;2023-10-19T02:41:42;97242.53;;;7.03;100.00
18509;BME280;9383;50.928;12.116;2023-10-19T02:44:20;97243.38;;;7.04;99.99
18509;BME280;9383;50.928;12.116;2023-10-19T02:46:54;97240.56;;;7.07;100.00
18509;BME280;9383;50.928;12.116;2023-10-19T02:49:27;97235.25;;;7.09;100.00
18509;BME280;9383;50.928;12.116;2023-10-19T02:51:56;97239.53;;;7.11;100.00
18509;BME280;9383;50.928;12.116;2023-10-19T02:54:30;97230.59;;;7.14;100.00
18509;BME280;9383;50.928;12.116;2023-10-19T02:56:59;97228.75;;;7.16;100.00
18509;BME280;9383;50.928;12.116;2023-10-19T02:59:27;97217.28;;;7.17;100.00
18509;BME280;9383;50.928;12.116;2023-10-19T03:02:00;97213.72;;;7.18;100.00
18509;BME280;9383;50.928;12.116;2023-10-19T03:04:42;97205.66;;;7.21;100.00
18509;BME280;9383;50.928;12.116;2023-10-19T03:07:10;97198.63;;;7.22;100.00
18509;BME280;9383;50.928;12.116;2023-10-19T03:09:39;97205.59;;;7.23;100.00
18509;BME280;9383;50.928;12.116;2023-10-19T03:12:06;97187.06;;;7.24;100.00
18509;BME280;9383;50.928;12.116;2023-10-19T03:14:40;97194.81;;;7.27;100.00
18509;BME280;9383;50.928;12.116;2023-10-19T03:17:10;97192.19;;;7.27;100.00
18509;BME280;9383;50.928;12.116;2023-10-19T03:19:37;97183.34;;;7.28;100.00
18509;BME280;9383;50.928;12.116;2023-10-19T03:22:05;97183.25;;;7.30;100.00
18509;BME280;9383;50.928;12.116;2023-10-19T03:24:34;97175.34;;;7.30;100.00
18509;BME280;9383;50.928;12.116;2023-10-19T03:27:12;97183.19;;;7.31;100.00
18509;BME280;9383;50.928;12.116;2023-10-19T03:29:44;97184.91;;;7.32;100.00
18509;BME280;9383;50.928;12.116;2023-10-19T03:32:20;97173.41;;;7.34;100.00
18509;BME280;9383;50.928;12.116;2023-10-19T03:34:48;97169.00;;;7.34;100.00
18509;BME280;9383;50.928;12.116;2023-10-19T03:37:17;97164.66;;;7.33;100.00
18509;BME280;9383;50.928;12.116;2023-10-19T03:39:46;97156.66;;;7.35;100.00
18509;BME280;9383;50.928;12.116;2023-10-19T03:42:13;97163.66;;;7.36;100.00
18509;BME280;9383;50.928;12.116;2023-10-19T03:44:41;97155.69;;;7.37;100.00
18509;BME280;9383;50.928;12.116;2023-10-19T03:47:15;97152.09;;;7.38;100.00
18509;BME280;9383;50.928;12.116;2023-10-19T03:49:46;97145.84;;;7.41;100.00
18509;BME280;9383;50.928;12.116;2023-10-19T03:52:14;97150.06;;;7.43;100.00
18509;BME280;9383;50.928;12.116;2023-10-19T03:54:42;97142.94;;;7.45;100.00
18509;BME280;9383;50.928;12.116;2023-10-19T03:57:14;97135.81;;;7.48;100.00
18509;BME280;9383;50.928;12.116;2023-10-19T03:59:47;97132.09;;;7.52;100.00
18509;BME280;9383;50.928;12.116;2023-10-19T04:02:19;97125.88;;;7.53;100.00
18509;BME280;9383;50.928;12.116;2023-10-19T04:04:50;97130.06;;;7.57;100.00
18509;BME280;9383;50.928;12.116;2023-10-19T04:07:19;97122.06;;;7.58;100.00
18509;BME280;9383;50.928;12.116;2023-10-19T04:09:54;97118.31;;;7.63;100.00
18509;BME280;9383;50.928;12.116;2023-10-19T04:12:29;97124.38;;;7.65;100.00
18509;BME280;9383;50.928;12.116;2023-10-19T04:14:58;97121.59;;;7.68;100.00
18509;BME280;9383;50.928;12.116;2023-10-19T04:17:35;97104.84;;;7.69;100.00
18509;BME280;9383;50.928;12.116;2023-10-19T04:20:03;97105.59;;;7.71;100.00
18509;BME280;9383;50.928;12.116;2023-10-19T04:22:55;97096.75;;;7.72;100.00
18509;BME280;9383;50.928;12.116;2023-10-19T04:25:23;97092.34;;;7.72;100.00
18509;BME280;9383;50.928;12.116;2023-10-19T04:27:53;97094.06;;;7.73;100.00
18509;BME280;9383;50.928;12.116;2023-10-19T04:30:20;97086.97;;;7.74;100.00
18509;BME280;9383;50.928;12.116;2023-10-19T04:32:55;97078.13;;;7.75;100.00
18509;BME280;9383;50.928;12.116;2023-10-19T04:35:28;97082.47;;;7.76;100.00
18509;BME280;9383;50.928;12.116;2023-10-19T04:38:00;97080.69;;;7.77;100.00
18509;BME280;9383;50.928;12.116;2023-10-19T04:40:30;97074.56;;;7.76;100.00
18509;BME280;9383;50.928;12.116;2023-10-19T04:43:11;97081.53;;;7.77;100.00
18509;BME280;9383;50.928;12.116;2023-10-19T04:45:42;97077.13;;;7.78;100.00
18509;BME280;9383;50.928;12.116;2023-10-19T04:48:13;97071.06;;;7.76;100.00
18509;BME280;9383;50.928;12.116;2023-10-19T04:50:59;97070.31;;;7.73;100.00
18509;BME280;9383;50.928;12.116;2023-10-19T04:53:29;97065.88;;;7.74;100.00
18509;BME280;9383;50.928;12.116;2023-10-19T04:55:57;97052.78;;;7.72;100.00
18509;BME280;9383;50.928;12.116;2023-10-19T04:58:35;97051.09;;;7.71;100.00
18509;BME280;9383;50.928;12.116;2023-10-19T05:01:06;97042.31;;;7.71;100.00
18509;BME280;9383;50.928;12.116;2023-10-19T05:03:38;97048.44;;;7.71;100.00
18509;BME280;9383;50.928;12.116;2023-10-19T05:06:09;97050.16;;;7.72;100.00
18509;BME280;9383;50.928;12.116;2023-10-19T05:08:45;97043.19;;;7.71;100.00
18509;BME280;9383;50.928;12.116;2023-10-19T05:11:18;97047.50;;;7.72;100.00
18509;BME280;9383;50.928;12.116;2023-10-19T05:13:50;97040.44;;;7.73;100.00
18509;BME280;9383;50.928;12.116;2023-10-19T05:16:16;97038.66;;;7.73;100.00
18509;BME280;9383;50.928;12.116;2023-10-19T05:18:48;97039.50;;;7.74;100.00
18509;BME280;9383;50.928;12.116;2023-10-19T05:21:27;97037.72;;;7.74;100.00
18509;BME280;9383;50.928;12.116;2023-10-19T05:23:57;97021.91;;;7.74;100.00
18509;BME280;9383;50.928;12.116;2023-10-19T05:26:33;97022.75;;;7.75;100.00
18509;BME280;9383;50.928;12.116;2023-10-19T05:29:05;97024.44;;;7.76;100.00
18509;BME280;9383;50.928;12.116;2023-10-19T05:31:38;97022.66;;;7.77;100.00
18509;BME280;9383;50.928;12.116;2023-10-19T05:34:14;97021.72;;;7.78;100.00
18509;BME280;9383;50.928;12.116;2023-10-19T05:36:43;97025.22;;;7.78;100.00
18509;BME280;9383;50.928;12.116;2023-10-19T05:39:13;97026.06;;;7.79;100.00
18509;BME280;9383;50.928;12.116;2023-10-19T05:41:39;97021.56;;;7.81;100.00
18509;BME280;9383;50.928;12.116;2023-10-19T05:44:20;97028.53;;;7.82;100.00
18509;BME280;9383;50.928;12.116;2023-10-19T05:46:46;97027.53;;;7.84;100.00
18509;BME280;9383;50.928;12.116;2023-10-19T05:49:33;97033.56;;;7.86;100.00
18509;BME280;9383;50.928;12.116;2023-10-19T05:52:00;97029.03;;;7.88;100.00
18509;BME280;9383;50.928;12.116;2023-10-19T05:54:28;97034.19;;;7.92;100.00
18509;BME280;9383;50.928;12.116;2023-10-19T05:56:55;97032.28;;;7.94;100.00
18509;BME280;9383;50.928;12.116;2023-10-19T05:59:24;97036.47;;;7.98;100.00
18509;BME280;9383;50.928;12.116;2023-10-19T06:01:53;97032.81;;;8.00;100.00
18509;BME280;9383;50.928;12.116;2023-10-19T06:04:20;97030.06;;;8.02;100.00
18509;BME280;9383;50.928;12.116;2023-10-19T06:06:47;97029.91;;;8.05;100.00
18509;BME280;9383;50.928;12.116;2023-10-19T06:09:14;97031.50;;;8.08;100.00
18509;BME280;9383;50.928;12.116;2023-10-19T06:11:42;97027.84;;;8.10;100.00
18509;BME280;9383;50.928;12.116;2023-10-19T06:14:09;97036.47;;;8.14;100.00
18509;BME280;9383;50.928;12.116;2023-10-19T06:16:36;97037.22;;;8.16;100.00
18509;BME280;9383;50.928;12.116;2023-10-19T06:19:04;97044.97;;;8.19;100.00
18509;BME280;9383;50.928;12.116;2023-10-19T06:21:31;97037.91;;;8.20;100.00
18509;BME280;9383;50.928;12.116;2023-10-19T06:23:59;97042.94;;;8.24;100.00
18509;BME280;9383;50.928;12.116;2023-10-19T06:26:26;97045.38;;;8.27;100.00
18509;BME280;9383;50.928;12.116;2023-10-19T06:28:53;97043.50;;;8.29;100.00
18509;BME280;9383;50.928;12.116;2023-10-19T06:31:25;97044.19;;;8.33;100.00
18509;BME280;9383;50.928;12.116;2023-10-19T06:33:52;97053.75;;;8.36;100.00
18509;BME280;9383;50.928;12.116;2023-10-19T06:36:19;97046.56;;;8.38;100.00
18509;BME280;9383;50.928;12.116;2023-10-19T06:38:48;97050.81;;;8.40;100.00
18509;BME280;9383;50.928;12.116;2023-10-19T06:41:17;97047.16;;;8.43;100.00
18509;BME280;9383;50.928;12.116;2023-10-19T06:43:44;97058.47;;;8.45;100.00
18509;BME280;9383;50.928;12.116;2023-10-19T06:46:11;97053.03;;;8.48;100.00
18509;BME280;9383;50.928;12.116;2023-10-19T06:48:38;97048.44;;;8.52;100.00
18509;BME280;9383;50.928;12.116;2023-10-19T06:51:09;97051.00;;;8.53;100.00
18509;BME280;9383;50.928;12.116;2023-10-19T06:53:35;97047.44;;;8.54;100.00
18509;BME280;9383;50.928;12.116;2023-10-19T06:56:02;97053.38;;;8.58;100.00
18509;BME280;9383;50.928;12.116;2023-10-19T06:58:30;97035.66;;;8.60;100.00
18509;BME280;9383;50.928;12.116;2023-10-19T07:00:57;97040.88;;;8.62;100.00
18509;BME280;9383;50.928;12.116;2023-10-19T07:03:28;97043.31;;;8.65;100.00
18509;BME280;9383;50.928;12.116;2023-10-19T07:05:58;97051.94;;;8.68;100.00
18509;BME280;9383;50.928;12.116;2023-10-19T07:08:25;97044.66;;;8.72;100.00
18509;BME280;9383;50.928;12.116;2023-10-19T07:10:53;97043.63;;;8.75;100.00
18509;BME280;9383;50.928;12.116;2023-10-19T07:13:20;97053.94;;;8.79;100.00
18509;BME280;9383;50.928;12.116;2023-10-19T07:15:48;97051.09;;;8.82;100.00
18509;BME280;9383;50.928;12.116;2023-10-19T07:18:15;97050.09;;;8.85;100.00
18509;BME280;9383;50.928;12.116;2023-10-19T07:20:42;97038.50;;;8.88;100.00
18509;BME280;9383;50.928;12.116;2023-10-19T07:23:09;97041.81;;;8.91;100.00
18509;BME280;9383;50.928;12.116;2023-10-19T07:25:52;97032.75;;;8.95;100.00
18509;BME280;9383;50.928;12.116;2023-10-19T07:28:23;97037.84;;;8.98;100.00
18509;BME280;9383;50.928;12.116;2023-10-19T07:30:53;97044.75;;;9.01;100.00
18509;BME280;9383;50.928;12.116;2023-10-19T07:33:21;97035.69;;;9.05;100.00
18509;BME280;9383;50.928;12.116;2023-10-19T07:35:50;97036.28;;;9.10;100.00
18509;BME280;9383;50.928;12.116;2023-10-19T07:38:26;97041.38;;;9.13;100.00
18509;BME280;9383;50.928;12.116;2023-10-19T07:40:55;97044.69;;;9.17;100.00
18509;BME280;9383;50.928;12.116;2023-10-19T07:43:22;97041.94;;;9.19;100.00
18509;BME280;9383;50.928;12.116;2023-10-19T07:45:50;97046.19;;;9.21;100.00
18509;BME280;9383;50.928;12.116;2023-10-19T07:48:19;97042.53;;;9.24;100.00
18509;BME280;9383;50.928;12.116;2023-10-19T07:50:46;97044.97;;;9.27;100.00
18509;BME280;9383;50.928;12.116;2023-10-19T07:53:17;97037.59;;;9.32;100.00
18509;BME280;9383;50.928;12.116;2023-10-19T07:55:45;97037.41;;;9.35;100.00
18509;BME280;9383;50.928;12.116;2023-10-19T07:58:12;97031.03;;;9.39;100.00
18509;BME280;9383;50.928;12.116;2023-10-19T08:00:38;97036.97;;;9.43;100.00
18509;BME280;9383;50.928;12.116;2023-10-19T08:03:11;97032.44;;;9.45;100.00
18509;BME280;9383;50.928;12.116;2023-10-19T08:05:40;97029.78;;;9.45;100.00
18509;BME280;9383;50.928;12.116;2023-10-19T08:08:07;97030.53;;;9.47;100.00
18509;BME280;9383;50.928;12.116;2023-10-19T08:10:35;97032.16;;;9.50;100.00
18509;BME280;9383;50.928;12.116;2023-10-19T08:13:04;97023.16;;;9.52;100.00
18509;BME280;9383;50.928;12.116;2023-10-19T08:15:31;97029.13;;;9.56;100.00
18509;BME280;9383;50.928;12.116;2023-10-19T08:17:58;97027.06;;;9.61;100.00
18509;BME280;9383;50.928;12.116;2023-10-19T08:20:26;97022.41;;;9.65;100.00
18509;BME280;9383;50.928;12.116;2023-10-19T08:22:57;97030.81;;;9.71;100.00
18509;BME280;9383;50.928;12.116;2023-10-19T08:25:25;97027.88;;;9.76;100.00
18509;BME280;9383;50.928;12.116;2023-10-19T08:27:54;97031.19;;;9.80;100.00
18509;BME280;9383;50.928;12.116;2023-10-19T08:30:25;97018.50;;;9.85;100.00
18509;BME280;9383;50.928;12.116;2023-10-19T08:32:57;97018.13;;;9.91;100.00
18509;BME280;9383;50.928;12.116;2023-10-19T08:35:25;97030.13;;;9.97;100.00
18509;BME280;9383;50.928;12.116;2023-10-19T08:37:54;97032.47;;;10.02;100.00
18509;BME280;9383;50.928;12.116;2023-10-19T08:40:25;97037.56;;;10.05;100.00
18509;BME280;9383;50.928;12.116;2023-10-19T08:42:53;97035.38;;;10.11;100.00
18509;BME280;9383;50.928;12.116;2023-10-19T08:45:21;97033.41;;;10.15;100.00
18509;BME280;9383;50.928;12.116;2023-10-19T08:48:00;97036.72;;;10.19;100.00
18509;BME280;9383;50.928;12.116;2023-10-19T08:50:33;97028.44;;;10.23;100.00
18509;BME280;9383;50.928;12.116;2023-10-19T08:53:02;97021.81;;;10.31;100.00
18509;BME280;9383;50.928;12.116;2023-10-19T08:55:30;96976.28;;;10.11;100.00
18509;BME280;9383;50.928;12.116;2023-10-19T08:57:57;97028.69;;;10.48;100.00
18509;BME280;9383;50.928;12.116;2023-10-19T09:00:27;97033.47;;;10.55;100.00
18509;BME280;9383;50.928;12.116;2023-10-19T09:02:54;97029.66;;;10.60;100.00
18509;BME280;9383;50.928;12.116;2023-10-19T09:05:24;97026.63;;;10.66;100.00
18509;BME280;9383;50.928;12.116;2023-10-19T09:07:53;97023.56;;;10.72;100.00
18509;BME280;9383;50.928;12.116;2023-10-19T09:10:24;97021.34;;;10.79;100.00
18509;BME280;9383;50.928;12.116;2023-10-19T09:13:03;97012.34;;;10.81;100.00
18509;BME280;9383;50.928;12.116;2023-10-19T09:15:31;97021.78;;;10.86;100.00
18509;BME280;9383;50.928;12.116;2023-10-19T09:18:22;97007.28;;;10.91;100.00
18509;BME280;9383;50.928;12.116;2023-10-19T09:20:51;96995.53;;;10.95;100.00
18509;BME280;9383;50.928;12.116;2023-10-19T09:23:28;96987.13;;;11.02;100.00
18509;BME280;9383;50.928;12.116;2023-10-19T09:25:58;96992.03;;;11.08;100.00
18509;BME280;9383;50.928;12.116;2023-10-19T09:28:29;96989.81;;;11.15;100.00
18509;BME280;9383;50.928;12.116;2023-10-19T09:30:56;96981.41;;;11.21;100.00
18509;BME280;9383;50.928;12.116;2023-10-19T09:33:23;96982.56;;;11.30;100.00
18509;BME280;9383;50.928;12.116;2023-10-19T09:35:51;96989.91;;;11.39;100.00
18509;BME280;9383;50.928;12.116;2023-10-19T09:38:23;96982.91;;;11.51;100.00
18509;BME280;9383;50.928;12.116;2023-10-19T09:40:53;96996.22;;;11.62;100.00
18509;BME280;9383;50.928;12.116;2023-10-19T09:43:33;96993.56;;;11.75;100.00
18509;BME280;9383;50.928;12.116;2023-10-19T09:46:06;97001.06;;;11.81;100.00
18509;BME280;9383;50.928;12.116;2023-10-19T09:48:45;97003.41;;;11.86;100.00
18509;BME280;9383;50.928;12.116;2023-10-19T09:51:12;96998.97;;;11.87;100.00
18509;BME280;9383;50.928;12.116;2023-10-19T09:53:40;97010.94;;;11.92;100.00
18509;BME280;9383;50.928;12.116;2023-10-19T09:56:21;97003.38;;;11.99;100.00
18509;BME280;9383;50.928;12.116;2023-10-19T09:58:52;97010.81;;;12.07;100.00
18509;BME280;9383;50.928;12.116;2023-10-19T10:01:19;97009.75;;;12.09;100.00
18509;BME280;9383;50.928;12.116;2023-10-19T10:03:53;97009.31;;;12.16;100.00
18509;BME280;9383;50.928;12.116;2023-10-19T10:06:31;97006.31;;;12.20;100.00
18509;BME280;9383;50.928;12.116;2023-10-19T10:09:21;97003.09;;;12.28;100.00
18509;BME280;9383;50.928;12.116;2023-10-19T10:11:54;96994.78;;;12.33;100.00
18509;BME280;9383;50.928;12.116;2023-10-19T10:14:26;96992.75;;;12.36;100.00
18509;BME280;9383;50.928;12.116;2023-10-19T10:17:03;96984.22;;;12.44;100.00
18509;BME280;9383;50.928;12.116;2023-10-19T10:19:32;96977.50;;;12.51;100.00
18509;BME280;9383;50.928;12.116;2023-10-19T10:22:11;96979.34;;;12.62;100.00
18509;BME280;9383;50.928;12.116;2023-10-19T10:24:41;96969.72;;;12.73;100.00
18509;BME280;9383;50.928;12.116;2023-10-19T10:27:09;96961.88;;;12.83;100.00
18509;BME280;9383;50.928;12.116;2023-10-19T10:29:37;96962.97;;;12.91;100.00
18509;BME280;9383;50.928;12.116;2023-10-19T10:32:59;96944.28;;;13.04;100.00
18509;BME280;9383;50.928;12.116;2023-10-19T10:38:07;96937.41;;;13.25;100.00
18509;BME280;9383;50.928;12.116;2023-10-19T10:40:49;96939.47;;;13.32;100.00
18509;BME280;9383;50.928;12.116;2023-10-19T10:43:18;96937.06;;;13.41;100.00
18509;BME280;9383;50.928;12.116;2023-10-19T10:45:45;96943.50;;;13.49;100.00
18509;BME280;9383;50.928;12.116;2023-10-19T10:48:18;96948.91;;;13.59;100.00
18509;BME280;9383;50.928;12.116;2023-10-19T10:50:47;96943.22;;;13.64;100.00
18509;BME280;9383;50.928;12.116;2023-10-19T10:53:14;96941.28;;;13.66;100.00
18509;BME280;9383;50.928;12.116;2023-10-19T10:55:45;96935.84;;;13.68;100.00
18509;BME280;9383;50.928;12.116;2023-10-19T10:58:16;96934.63;;;13.72;100.00
18509;BME280;9383;50.928;12.116;2023-10-19T11:00:45;96931.97;;;13.72;100.00
18509;BME280;9383;50.928;12.116;2023-10-19T11:03:14;96928.06;;;13.76;100.00
18509;BME280;9383;50.928;12.116;2023-10-19T11:05:42;96928.81;;;13.78;100.00
18509;BME280;9383;50.928;12.116;2023-10-19T11:08:13;96933.91;;;13.81;100.00
18509;BME280;9383;50.928;12.116;2023-10-19T11:10:42;96920.59;;;13.81;100.00
18509;BME280;9383;50.928;12.116;2023-10-19T11:13:11;96915.47;;;13.89;100.00
18509;BME280;9383;50.928;12.116;2023-10-19T11:15:49;96917.38;;;13.99;100.00
18509;BME280;9383;50.928;12.116;2023-10-19T11:18:41;96928.25;;;14.07;100.00
18509;BME280;9383;50.928;12.116;2023-10-19T11:21:13;96925.59;;;14.07;100.00
18509;BME280;9383;50.928;12.116;2023-10-19T11:23:46;96926.44;;;14.07;100.00
18509;BME280;9383;50.928;12.116;2023-10-19T11:26:24;96923.28;;;14.14;100.00
18509;BME280;9383;50.928;12.116;2023-10-19T11:29:01;96912.47;;;14.15;100.00
18509;BME280;9383;50.928;12.116;2023-10-19T11:31:38;96920.94;;;14.20;100.00
18509;BME280;9383;50.928;12.116;2023-10-19T11:34:06;96920.44;;;14.27;100.00
18509;BME280;9383;50.928;12.116;2023-10-19T11:36:38;96926.34;;;14.30;100.00
18509;BME280;9383;50.928;12.116;2023-10-19T11:39:05;96921.63;;;14.34;100.00
18509;BME280;9383;50.928;12.116;2023-10-19T11:41:38;96925.88;;;14.37;100.00
18509;BME280;9383;50.928;12.116;2023-10-19T11:44:05;96918.44;;;14.40;100.00
18509;BME280;9383;50.928;12.116;2023-10-19T11:46:32;96919.88;;;14.44;100.00
18509;BME280;9383;50.928;12.116;2023-10-19T11:49:01;96910.66;;;14.48;100.00
18509;BME280;9383;50.928;12.116;2023-10-19T11:51:29;96911.25;;;14.52;100.00
18509;BME280;9383;50.928;12.116;2023-10-19T11:53:57;96908.84;;;14.49;100.00
18509;BME280;9383;50.928;12.116;2023-10-19T11:56:24;96907.00;;;14.49;100.00
18509;BME280;9383;50.928;12.116;2023-10-19T11:58:52;96898.91;;;14.51;100.00
18509;BME280;9383;50.928;12.116;2023-10-19T12:01:26;96887.97;;;14.54;100.00
18509;BME280;9383;50.928;12.116;2023-10-19T12:03:53;96890.25;;;14.59;100.00
18509;BME280;9383;50.928;12.116;2023-10-19T12:06:21;96892.78;;;14.60;100.00
18509;BME280;9383;50.928;12.116;2023-10-19T12:08:50;96888.28;;;14.61;100.00
18509;BME280;9383;50.928;12.116;2023-10-19T12:11:17;96891.81;;;14.61;100.00
18509;BME280;9383;50.928;12.116;2023-10-19T12:13:46;96892.53;;;14.63;100.00
18509;BME280;9383;50.928;12.116;2023-10-19T12:16:13;96887.91;;;14.66;100.00
18509;BME280;9383;50.928;12.116;2023-10-19T12:18:48;96884.13;;;14.68;100.00
18509;BME280;9383;50.928;12.116;2023-10-19T12:21:17;96885.59;;;14.72;100.00
18509;BME280;9383;50.928;12.116;2023-10-19T12:23:45;96878.28;;;14.74;100.00
18509;BME280;9383;50.928;12.116;2023-10-19T12:26:34;96870.75;;;14.80;100.00
18509;BME280;9383;50.928;12.116;2023-10-19T12:29:01;96880.47;;;14.81;100.00
18509;BME280;9383;50.928;12.116;2023-10-19T12:31:31;96877.41;;;14.85;100.00
18509;BME280;9383;50.928;12.116;2023-10-19T12:33:57;96873.47;;;14.89;100.00
18509;BME280;9383;50.928;12.116;2023-10-19T12:36:24;96876.72;;;14.93;100.00
18509;BME280;9383;50.928;12.116;2023-10-19T12:38:53;96863.81;;;14.98;100.00
18509;BME280;9383;50.928;12.116;2023-10-19T12:41:24;96868.91;;;15.01;100.00
18509;BME280;9383;50.928;12.116;2023-10-19T12:43:51;96869.75;;;15.02;100.00
18509;BME280;9383;50.928;12.116;2023-10-19T12:46:24;96869.75;;;15.02;100.00
18509;BME280;9383;50.928;12.116;2023-10-19T12:48:54;96860.19;;;14.99;99.90
18509;BME280;9383;50.928;12.116;2023-10-19T12:51:42;96863.81;;;14.98;99.98
18509;BME280;9383;50.928;12.116;2023-10-19T12:54:11;96870.84;;;14.99;100.00
18509;BME280;9383;50.928;12.116;2023-10-19T12:56:40;96868.06;;;15.01;100.00
18509;BME280;9383;50.928;12.116;2023-10-19T12:59:13;96864.69;;;14.99;100.00
18509;BME280;9383;50.928;12.116;2023-10-19T13:01:43;96862.72;;;15.01;100.00
18509;BME280;9383;50.928;12.116;2023-10-19T13:04:17;96866.94;;;15.03;100.00
18509;BME280;9383;50.928;12.116;2023-10-19T13:06:45;96866.09;;;15.03;100.00
18509;BME280;9383;50.928;12.116;2023-10-19T13:09:15;96866.69;;;15.07;100.00
18509;BME280;9383;50.928;12.116;2023-10-19T13:11:49;96864.44;;;15.12;100.00
18509;BME280;9383;50.928;12.116;2023-10-19T13:14:18;96855.47;;;15.13;100.00
18509;BME280;9383;50.928;12.116;2023-10-19T13:16:45;96858.00;;;15.14;100.00
18509;BME280;9383;50.928;12.116;2023-10-19T13:19:11;96853.38;;;15.16;100.00
18509;BME280;9383;50.928;12.116;2023-10-19T13:21:41;96844.81;;;15.23;100.00